createdAt,value
2024-05-09T00:03:35.455Z,85.76621144013842
2024-05-09T00:09:49.563Z,86.45539800905338
2024-05-09T00:13:09.868Z,86.44019879401125
2024-05-09T00:16:30.233Z,86.85471716952873
2024-05-09T00:19:50.279Z,86.79213622205658
2024-05-09T00:23:09.935Z,87.59910691899097
2024-05-09T00:30:27.964Z,87.59671233244232
2024-05-09T00:33:53.109Z,87.5521605505589
2024-05-09T00:38:36.503Z,88.14809221627614
2024-05-09T00:41:56.899Z,88.37806993866576
2024-05-09T00:45:16.956Z,88.10317725591564
2024-05-09T00:50:19.036Z,88.50240206395364
2024-05-09T00:53:43.182Z,89.3354738632578
2024-05-09T00:57:03.118Z,89.13866502238567
2024-05-09T01:00:31.495Z,89.79611009835331
2024-05-09T01:03:58.578Z,90.00792660056946
2024-05-09T01:08:19.233Z,90.70371311002484
2024-05-09T01:11:44.494Z,91.34563346705029
2024-05-09T01:15:04.834Z,91.37632616480514
2024-05-09T01:18:24.823Z,91.4744753435576
2024-05-09T01:25:03.508Z,91.64257034756541
2024-05-09T01:38:53.986Z,91.89831459264371
2024-05-09T01:42:14.164Z,92.21369871260933
2024-05-09T01:45:34.469Z,92.39870976841097
2024-05-09T01:48:54.316Z,92.79600730393398
2024-05-09T01:52:14.434Z,92.99578498759178
2024-05-09T01:55:44.570Z,93.75762201938453
2024-05-09T01:59:04.448Z,94.06888519688407
2024-05-09T02:02:24.739Z,93.73195883270066
2024-05-09T02:05:52.657Z,94.4660057215338
2024-05-09T02:16:25.760Z,94.60198138471836
2024-05-09T02:19:46.012Z,95.0888490382566
2024-05-09T02:23:27.089Z,94.83273827955973
2024-05-09T02:26:48.618Z,94.76494055420295
2024-05-09T02:38:35.701Z,95.8648538066603
2024-05-09T02:50:34.179Z,96.15043707890639
2024-05-09T02:56:57.726Z,96.61543260392098
2024-05-09T03:01:51.182Z,98.58645517248864
2024-05-09T03:05:11.653Z,97.74554151538075
2024-05-09T03:08:31.799Z,97.04188195921454
2024-05-09T03:11:52.946Z,96.78999582600972
2024-05-09T03:15:13.586Z,97.30864516259624
2024-05-09T03:18:35.842Z,96.81081392393743
2024-05-09T03:21:55.719Z,97.911132792087
2024-05-09T03:25:15.684Z,98.6815943485514
2024-05-09T03:28:35.770Z,99.01558933997207
2024-05-09T03:31:55.607Z,98.30684906893069
2024-05-09T03:36:32.658Z,97.974345101992
2024-05-09T03:39:55.450Z,97.56495404458518
2024-05-09T03:43:16.039Z,98.19464520769763
2024-05-09T03:46:43.986Z,98.86913597756414
2024-05-09T03:50:40.763Z,99.51938403879046
2024-05-09T03:56:25.691Z,98.786463037406
2024-05-09T03:59:45.750Z,98.25064859473807
2024-05-09T04:03:07.473Z,98.36832063710881
2024-05-09T04:06:33.914Z,97.69731331887469
2024-05-09T04:09:54.923Z,97.92843281506504
2024-05-09T04:13:15.952Z,98.70606022764868
2024-05-09T04:16:37.009Z,99.0063493023177
2024-05-09T04:19:57.202Z,99.39456593800178
2024-05-09T04:26:23.222Z,99.17080421112658
2024-05-09T04:29:44.440Z,99.50521902216126
2024-05-09T04:33:05.655Z,99.57084784270994
2024-05-09T04:36:26.237Z,99.33073981772344
2024-05-09T04:39:47.562Z,98.99026319824291
2024-05-09T04:43:11.606Z,99.10172118329758
2024-05-09T04:46:31.235Z,99.48766044164097
2024-05-09T04:50:39.299Z,99.91154004776331
2024-05-09T04:54:01.216Z,99.73714521926297
2024-05-09T04:58:40.895Z,98.82379839530668
2024-05-09T05:02:01.876Z,98.57333048580563
2024-05-09T05:08:34.111Z,98.69301621189345
2024-05-09T05:11:55.215Z,99.19314744436126
2024-05-09T05:15:15.808Z,98.75076279693629
2024-05-09T05:18:36.136Z,98.73366196341954
2024-05-09T05:24:14.513Z,98.57056998738202
2024-05-09T05:27:34.656Z,98.19535332097011
2024-05-09T05:32:56.544Z,97.7601741730363
2024-05-09T05:36:17.514Z,97.68170118951429
2024-05-09T05:39:39.097Z,97.46143249335472
2024-05-09T05:42:59.415Z,97.24830412994149
2024-05-09T05:46:19.987Z,97.65980471789481
2024-05-09T05:58:12.994Z,99.40824170230891
2024-05-09T06:10:09.256Z,98.58362537316263
2024-05-09T06:13:36.688Z,98.11076981068288
2024-05-09T06:16:58.430Z,97.86315848015192
2024-05-09T06:20:24.063Z,97.3489083427272
2024-05-09T06:23:53.390Z,96.86193625302485
2024-05-09T06:27:14.096Z,96.29287289980152
2024-05-09T06:30:39.505Z,96.34828060786755
2024-05-09T06:34:02.400Z,94.64729726370213
2024-05-09T06:37:23.415Z,94.05524288083222
2024-05-09T06:40:45.028Z,93.56491790279453
2024-05-09T06:46:06.055Z,91.77988223517795
2024-05-09T06:49:26.905Z,91.73063375458652
2024-05-09T06:52:49.271Z,91.24432444253279
2024-05-09T06:56:09.413Z,89.71435250736167
2024-05-09T06:59:30.251Z,90.6385625232039
2024-05-09T07:04:28.310Z,89.17023619503011
2024-05-09T07:11:00.077Z,86.82699407128283
2024-05-09T07:14:22.107Z,86.51824570570558
2024-05-09T07:17:42.726Z,86.84044684872832
2024-05-09T07:21:03.639Z,86.63601940308436
2024-05-09T07:27:09.019Z,85.3412452574995
2024-05-09T07:32:48.325Z,84.94240498205374
2024-05-09T07:36:10.261Z,83.82143550536496
2024-05-09T07:41:17.231Z,82.73058328337214
2024-05-09T07:44:48.594Z,82.27442032750649
2024-05-09T07:53:08.886Z,80.18753671238179
2024-05-09T07:56:58.101Z,79.8159639890803
2024-05-09T08:00:23.717Z,79.58745315642929
2024-05-09T08:06:49.387Z,79.60630627121023
2024-05-09T08:10:12.891Z,78.72790604994047
2024-05-09T08:13:35.493Z,78.90817914915043
2024-05-09T08:19:03.998Z,79.00864799597748
2024-05-09T08:24:48.949Z,76.37485238567493
2024-05-09T08:28:42.015Z,76.38506054396288
2024-05-09T08:32:02.773Z,76.31011979340593
2024-05-09T08:38:49.286Z,75.37966008724298
2024-05-09T08:46:25.886Z,72.46515990362634
2024-05-09T08:53:15.589Z,69.03741235639386
2024-05-09T08:56:36.695Z,68.44930593317918
2024-05-09T08:59:59.132Z,67.16623649415801
2024-05-09T09:05:08.744Z,68.08292626479401
2024-05-09T09:08:30.035Z,67.42077098096085
2024-05-09T09:11:50.401Z,66.74294873733234
2024-05-09T09:15:10.447Z,65.75648424253507
2024-05-09T09:18:31.181Z,66.10517308066483
2024-05-09T09:27:14.739Z,66.49690406116738
2024-05-09T09:39:21.609Z,64.68733118832243
2024-05-09T09:42:42.323Z,62.00679855438814
2024-05-09T09:48:58.449Z,61.28717485684739
2024-05-09T09:56:21.155Z,59.663137300692426
2024-05-09T09:59:42.165Z,60.30709358137005
2024-05-09T10:03:02.559Z,60.75064753144156
2024-05-09T10:06:23.186Z,62.893747517458976
2024-05-09T10:09:44.175Z,63.39193225409653
2024-05-09T10:13:04.420Z,62.7173263581953
2024-05-09T10:16:24.158Z,63.55866204212685
2024-05-09T10:23:57.015Z,64.46086519474535
2024-05-09T10:27:17.392Z,62.292698851219484
2024-05-09T10:30:39.415Z,61.2557347866016
2024-05-09T10:34:01.152Z,61.61298674325314
2024-05-09T10:37:22.233Z,60.02880026425302
2024-05-09T10:40:42.717Z,58.15868271849898
2024-05-09T10:44:02.627Z,57.20897007203377
2024-05-09T10:47:22.516Z,56.631865041622774
2024-05-09T10:50:42.349Z,58.019265795997136
2024-05-09T10:54:02.315Z,57.70255412064653
2024-05-09T10:57:22.807Z,56.67438154262483
2024-05-09T11:02:23.730Z,57.28813696080807
2024-05-09T11:05:45.280Z,57.24426038733438
2024-05-09T11:09:05.595Z,57.54544028972367
2024-05-09T11:12:26.395Z,57.35227908166017
2024-05-09T11:15:47.732Z,56.09668211090081
2024-05-09T11:19:09.021Z,55.35319613423187
2024-05-09T11:24:47.469Z,55.856000498093294
2024-05-09T11:28:08.030Z,55.48034882876271
2024-05-09T11:31:29.036Z,55.53267547304088
2024-05-09T11:39:16.624Z,54.881181919008995
2024-05-09T11:42:37.752Z,55.91126565542619
2024-05-09T11:48:00.965Z,56.583610936182275
2024-05-09T11:51:21.165Z,55.71320030977554
2024-05-09T11:54:41.268Z,55.18349663237034
2024-05-09T11:58:01.242Z,56.20160573020055
2024-05-09T12:01:25.067Z,56.390382681844265
2024-05-09T12:04:47.166Z,55.40276837377678
2024-05-09T12:08:07.577Z,55.25693904299068
2024-05-09T12:11:27.572Z,54.159405075486596
2024-05-09T12:14:48.067Z,53.73627947546637
2024-05-09T12:23:15.956Z,53.167526033638445
2024-05-09T12:26:37.599Z,52.83416684557213
2024-05-09T12:29:57.734Z,53.08919746359369
2024-05-09T12:33:18.276Z,52.85728817715263
2024-05-09T12:36:39.566Z,52.477291162648385
2024-05-09T12:40:00.647Z,51.935582186741485
2024-05-09T12:45:16.535Z,52.10843277844098
2024-05-09T12:48:37.192Z,50.321193794599886
2024-05-09T12:56:14.642Z,51.335669100965205
2024-05-09T12:59:35.902Z,52.25390264110183
2024-05-09T13:02:57.337Z,51.161728073220836
2024-05-09T13:06:17.382Z,51.634139918737944
2024-05-09T13:09:38.990Z,51.22972870975162
2024-05-09T13:13:02.052Z,51.39702266321975
2024-05-09T13:16:22.683Z,51.41074721435158
2024-05-09T13:19:44.387Z,50.324454161070186
2024-05-09T13:23:05.562Z,49.29754623174893
2024-05-09T13:26:31.960Z,50.08445851825752
2024-05-09T13:31:23.146Z,51.185595982002
2024-05-09T13:34:47.776Z,50.837945348557035
2024-05-09T13:38:10.405Z,50.47368542693855
2024-05-09T13:45:51.067Z,50.57267465105999
2024-05-09T13:49:12.934Z,50.42429162995439
2024-05-09T13:52:42.134Z,49.90220364843211
2024-05-09T13:56:44.726Z,49.69918575021529
2024-05-09T14:00:37.932Z,50.10001225443926
2024-05-09T14:07:11.054Z,49.545067418587905
2024-05-09T14:10:36.273Z,48.71495580108084
2024-05-09T14:13:58.995Z,48.75590867957915
2024-05-09T14:17:20.366Z,49.77333020994732
2024-05-09T14:23:54.553Z,50.27056485048285
2024-05-09T14:29:59.609Z,51.119642389168405
2024-05-09T14:33:20.747Z,51.94353833262811
2024-05-09T14:36:42.037Z,51.19839230426002
2024-05-09T14:40:02.952Z,51.64515095733437
2024-05-09T14:43:24.648Z,50.866032561306305
2024-05-09T14:46:46.638Z,50.49527414958887
2024-05-09T14:50:06.999Z,50.223717729949044
2024-05-09T14:53:29.252Z,49.66708001262186
2024-05-09T14:56:50.041Z,50.882405564205094
2024-05-09T15:02:46.627Z,49.80738061551748
2024-05-09T15:06:11.357Z,49.92529183443616
2024-05-09T15:17:53.564Z,50.35694594756438
2024-05-09T15:21:14.546Z,49.71675701899968
2024-05-09T15:24:38.897Z,49.2827068454873
2024-05-09T15:28:05.271Z,49.41268960812819
2024-05-09T15:34:43.688Z,49.32181801954107
2024-05-09T15:38:46.580Z,48.429605158116104
2024-05-09T15:43:05.700Z,48.446674526690266
2024-05-09T15:46:27.676Z,48.97261520859192
2024-05-09T15:49:49.775Z,49.93845988935983
2024-05-09T15:54:54.453Z,50.98402964896584
2024-05-09T15:58:16.283Z,50.33248938497314
2024-05-09T16:01:37.855Z,50.45248402404042
2024-05-09T16:08:00.090Z,52.59202431220475
2024-05-09T16:11:21.211Z,52.300888775668895
2024-05-09T16:14:42.303Z,52.48143842125401
2024-05-09T16:18:31.910Z,52.40948369854267
2024-05-09T16:26:55.849Z,52.51256002782765
2024-05-09T16:30:31.463Z,52.57877877313605
2024-05-09T16:34:00.745Z,54.853022076977894
2024-05-09T16:37:21.949Z,55.97337216031252
2024-05-09T16:40:43.431Z,56.283335880151135
2024-05-09T16:46:33.335Z,56.65999276279409
2024-05-09T16:50:05.144Z,57.24108342504293
2024-05-09T16:53:25.843Z,57.35162023882416
2024-05-09T16:56:48.105Z,57.64717246327737
2024-05-09T17:00:18.101Z,58.45076205172332
2024-05-09T17:06:35.491Z,58.8680869320823
2024-05-09T17:10:26.697Z,58.586942203371606
2024-05-09T17:13:53.403Z,58.581192673043724
2024-05-09T17:17:14.218Z,59.28249850799403
2024-05-09T17:20:54.572Z,59.88658016968824
2024-05-09T17:24:15.693Z,60.503345505949376
2024-05-09T17:30:46.460Z,61.78102700197141
2024-05-09T17:34:32.856Z,62.68298724995752
2024-05-09T17:37:55.401Z,63.287220862245455
2024-05-09T17:41:15.779Z,63.58232214679433
2024-05-09T17:44:37.364Z,63.539198403850286
2024-05-09T17:48:47.006Z,63.675319030564665
2024-05-09T17:52:06.898Z,63.282712242294444
2024-05-09T17:55:27.015Z,63.2127849484591
2024-05-09T17:58:47.982Z,63.52583048292341
2024-05-09T18:02:09.499Z,63.78477044350585
2024-05-09T18:11:01.978Z,63.92621163936439
2024-05-09T18:14:23.616Z,63.78779453312953
2024-05-09T18:17:45.095Z,63.56969223449635
2024-05-09T18:21:05.457Z,63.8640655813418
2024-05-09T18:24:26.582Z,64.13413136940338
2024-05-09T18:27:48.563Z,64.19712800533381
2024-05-09T18:31:10.237Z,64.42147302283452
2024-05-09T18:34:31.391Z,65.27194021554169
2024-05-09T18:37:53.775Z,66.60258187252721
2024-05-09T18:41:16.196Z,66.66565305353551
2024-05-09T18:45:59.716Z,66.6614078641123
2024-05-09T18:49:24.342Z,67.21746412828936
2024-05-09T18:52:45.838Z,67.98093257550165
2024-05-09T18:56:57.570Z,68.30343480803013
2024-05-09T19:00:31.014Z,68.57869323249857
2024-05-09T19:03:56.091Z,68.27234166095928
2024-05-09T19:07:25.189Z,69.1454302598436
2024-05-09T19:10:46.795Z,69.48762778948887
2024-05-09T19:14:08.151Z,69.77671179606327
2024-05-09T19:17:29.636Z,70.04130890537927
2024-05-09T19:22:17.097Z,70.69227820958305
2024-05-09T19:25:37.821Z,71.20576493107806
2024-05-09T19:28:57.877Z,71.78776302019237
2024-05-09T19:32:18.942Z,72.44071748039521
2024-05-09T19:37:30.053Z,73.16901593983114
2024-05-09T19:40:51.035Z,73.41921603234789
2024-05-09T19:44:11.498Z,74.08015810133999
2024-05-09T19:47:38.964Z,75.14596255016438
2024-05-09T19:53:34.337Z,75.70864545001399
2024-05-09T19:56:54.655Z,75.84388230255087
2024-05-09T20:00:21.857Z,76.1634742435023
2024-05-09T20:03:47.406Z,76.55300370179648
2024-05-09T20:08:28.591Z,76.91128944212893
2024-05-09T20:11:49.424Z,77.07394332976384
2024-05-09T20:16:30.844Z,77.75509570515266
2024-05-09T20:19:51.458Z,78.67282041993117
2024-05-09T20:23:11.723Z,78.47713167174798
2024-05-09T20:26:31.262Z,78.63499784432646
2024-05-09T20:29:56.584Z,78.93467487956146
2024-05-09T20:33:16.257Z,79.31584280904276
2024-05-09T20:36:36.564Z,79.15823076401733
2024-05-09T20:39:57.311Z,79.68282225259081
2024-05-09T20:43:18.405Z,79.50633922274223
2024-05-09T20:46:48.133Z,79.71587572884091
2024-05-09T20:50:34.961Z,79.605443375349
2024-05-09T20:54:05.042Z,79.91411896262915
2024-05-09T20:59:08.530Z,80.44369730765317
2024-05-09T21:02:33.006Z,80.78316352257191
2024-05-09T21:09:05.772Z,81.12189365394222
2024-05-09T21:12:35.484Z,81.56180972806463
2024-05-09T21:16:11.314Z,81.53336853840484
2024-05-09T21:22:37.397Z,81.88404983721445
2024-05-09T21:26:13.705Z,81.89156685320015
2024-05-09T21:29:37.751Z,81.91421891944229
2024-05-09T21:32:57.751Z,82.28937067308841
2024-05-09T21:36:17.762Z,82.42483037820676
2024-05-09T21:59:14.076Z,83.04270852188975
2024-05-09T22:02:34.448Z,83.16902091361071
2024-05-09T22:05:54.936Z,83.39490574110408
2024-05-09T22:09:14.587Z,83.78002518420843
2024-05-09T22:12:36.224Z,83.88162909544613
2024-05-09T22:15:56.591Z,83.58108679729717
2024-05-09T22:19:16.638Z,83.82766254029197
2024-05-09T22:22:36.575Z,83.83406404406611
2024-05-09T22:25:56.929Z,83.76422230109175
2024-05-09T22:29:17.220Z,84.31775156119434
2024-05-09T22:34:19.967Z,84.41961194984307
2024-05-09T22:37:41.346Z,84.53760597972051
2024-05-09T22:45:31.515Z,84.78182870418881
2024-05-09T22:48:51.487Z,84.97042235517905
2024-05-09T23:10:16.573Z,87.61288330258789
2024-05-09T23:13:40.999Z,88.51222258209603
2024-05-09T23:17:00.709Z,88.9631070054795
2024-05-09T23:23:42.190Z,88.97195656054762
2024-05-09T23:27:02.148Z,89.04884588646188
2024-05-09T23:30:36.431Z,89.04672154236448
2024-05-09T23:33:59.507Z,89.35252942684704
2024-05-09T23:37:20.064Z,89.03221244503095
2024-05-09T23:44:26.364Z,89.0907178152313
2024-05-09T23:55:28.029Z,89.64765317550209
2024-05-09T23:58:48.890Z,89.68962859639832
